sensor_id;sensor_type;location;lat;lon;timestamp;temperature;humidity
27567;DHT22;15006;48.584;9.186;2024-02-23T00:01:17;2.60;96.10
27567;DHT22;15006;48.584;9.186;2024-02-23T00:03:43;2.50;96.50
27567;DHT22;15006;48.584;9.186;2024-02-23T00:06:09;2.50;96.90
27567;DHT22;15006;48.584;9.186;2024-02-23T00:08:35;2.50;95.40
27567;DHT22;15006;48.584;9.186;2024-02-23T00:11:01;2.50;95.30
27567;DHT22;15006;48.584;9.186;2024-02-23T00:13:27;2.50;95.90
27567;DHT22;15006;48.584;9.186;2024-02-23T00:15:53;2.60;96.70
27567;DHT22;15006;48.584;9.186;2024-02-23T00:18:19;2.60;96.70
27567;DHT22;15006;48.584;9.186;2024-02-23T00:20:46;2.60;97.20
27567;DHT22;15006;48.584;9.186;2024-02-23T00:23:12;2.60;97.60
27567;DHT22;15006;48.584;9.186;2024-02-23T00:25:39;2.60;97.80
27567;DHT22;15006;48.584;9.186;2024-02-23T00:28:05;2.60;98.00
27567;DHT22;15006;48.584;9.186;2024-02-23T00:30:32;2.60;98.20
27567;DHT22;15006;48.584;9.186;2024-02-23T00:32:58;2.70;98.50
27567;DHT22;15006;48.584;9.186;2024-02-23T00:35:24;2.70;98.60
27567;DHT22;15006;48.584;9.186;2024-02-23T00:37:50;2.70;98.70
27567;DHT22;15006;48.584;9.186;2024-02-23T00:40:16;2.70;99.20
27567;DHT22;15006;48.584;9.186;2024-02-23T00:42:42;2.70;99.10
27567;DHT22;15006;48.584;9.186;2024-02-23T00:45:08;2.70;99.20
27567;DHT22;15006;48.584;9.186;2024-02-23T00:47:34;2.80;99.20
27567;DHT22;15006;48.584;9.186;2024-02-23T00:50:01;2.70;99.10
27567;DHT22;15006;48.584;9.186;2024-02-23T00:52:27;2.70;99.00
27567;DHT22;15006;48.584;9.186;2024-02-23T00:54:53;2.70;98.80
27567;DHT22;15006;48.584;9.186;2024-02-23T00:57:19;2.70;98.80
27567;DHT22;15006;48.584;9.186;2024-02-23T00:59:52;2.70;98.80
27567;DHT22;15006;48.584;9.186;2024-02-23T01:02:18;2.70;98.70
27567;DHT22;15006;48.584;9.186;2024-02-23T01:04:44;2.60;98.40
27567;DHT22;15006;48.584;9.186;2024-02-23T01:07:10;2.60;98.20
27567;DHT22;15006;48.584;9.186;2024-02-23T01:09:36;2.60;98.40
27567;DHT22;15006;48.584;9.186;2024-02-23T01:12:02;2.50;98.40
27567;DHT22;15006;48.584;9.186;2024-02-23T01:14:28;2.50;98.30
27567;DHT22;15006;48.584;9.186;2024-02-23T01:16:55;2.50;98.40
27567;DHT22;15006;48.584;9.186;2024-02-23T01:19:21;2.40;98.50
27567;DHT22;15006;48.584;9.186;2024-02-23T01:21:47;2.40;98.30
27567;DHT22;15006;48.584;9.186;2024-02-23T01:24:14;2.30;98.30
27567;DHT22;15006;48.584;9.186;2024-02-23T01:26:40;2.30;98.00
27567;DHT22;15006;48.584;9.186;2024-02-23T01:29:07;2.20;97.90
27567;DHT22;15006;48.584;9.186;2024-02-23T01:31:32;2.10;97.90
27567;DHT22;15006;48.584;9.186;2024-02-23T01:33:58;2.10;97.90
27567;DHT22;15006;48.584;9.186;2024-02-23T01:36:24;2.00;97.90
27567;DHT22;15006;48.584;9.186;2024-02-23T01:38:50;1.90;98.10
27567;DHT22;15006;48.584;9.186;2024-02-23T01:41:16;1.90;98.20
27567;DHT22;15006;48.584;9.186;2024-02-23T01:43:42;1.80;98.30
27567;DHT22;15006;48.584;9.186;2024-02-23T01:46:08;1.70;98.40
27567;DHT22;15006;48.584;9.186;2024-02-23T01:48:34;1.70;98.70
27567;DHT22;15006;48.584;9.186;2024-02-23T01:51:00;1.60;98.80
27567;DHT22;15006;48.584;9.186;2024-02-23T01:53:27;1.60;99.00
27567;DHT22;15006;48.584;9.186;2024-02-23T01:55:54;1.50;99.10
27567;DHT22;15006;48.584;9.186;2024-02-23T01:58:20;1.50;99.30
27567;DHT22;15006;48.584;9.186;2024-02-23T02:00:46;1.50;99.30
27567;DHT22;15006;48.584;9.186;2024-02-23T02:03:12;1.50;99.50
27567;DHT22;15006;48.584;9.186;2024-02-23T02:05:38;1.40;99.50
27567;DHT22;15006;48.584;9.186;2024-02-23T02:08:05;1.40;99.50
27567;DHT22;15006;48.584;9.186;2024-02-23T02:10:31;1.40;99.80
27567;DHT22;15006;48.584;9.186;2024-02-23T02:13:06;1.40;99.80
27567;DHT22;15006;48.584;9.186;2024-02-23T02:15:32;1.40;99.60
27567;DHT22;15006;48.584;9.186;2024-02-23T02:17:58;1.40;99.90
27567;DHT22;15006;48.584;9.186;2024-02-23T02:20:24;1.40;99.90
27567;DHT22;15006;48.584;9.186;2024-02-23T02:22:52;1.40;99.90
27567;DHT22;15006;48.584;9.186;2024-02-23T02:25:18;1.30;99.90
27567;DHT22;15006;48.584;9.186;2024-02-23T02:27:44;1.40;99.90
27567;DHT22;15006;48.584;9.186;2024-02-23T02:30:14;1.30;99.90
27567;DHT22;15006;48.584;9.186;2024-02-23T02:32:40;1.40;99.90
27567;DHT22;15006;48.584;9.186;2024-02-23T02:35:06;1.30;99.90
27567;DHT22;15006;48.584;9.186;2024-02-23T02:37:32;1.30;99.90
27567;DHT22;15006;48.584;9.186;2024-02-23T02:39:59;1.30;99.90
27567;DHT22;15006;48.584;9.186;2024-02-23T02:42:25;1.40;99.90
27567;DHT22;15006;48.584;9.186;2024-02-23T02:44:51;1.40;99.90
27567;DHT22;15006;48.584;9.186;2024-02-23T02:47:17;1.40;99.90
27567;DHT22;15006;48.584;9.186;2024-02-23T02:49:43;1.40;99.90
27567;DHT22;15006;48.584;9.186;2024-02-23T02:52:09;1.40;99.90
27567;DHT22;15006;48.584;9.186;2024-02-23T02:54:35;1.40;99.90
27567;DHT22;15006;48.584;9.186;2024-02-23T02:57:01;1.40;99.90
27567;DHT22;15006;48.584;9.186;2024-02-23T02:59:27;1.40;99.90
27567;DHT22;15006;48.584;9.186;2024-02-23T03:01:53;1.40;99.90
27567;DHT22;15006;48.584;9.186;2024-02-23T03:04:19;1.40;99.90
27567;DHT22;15006;48.584;9.186;2024-02-23T03:06:45;1.40;99.90
27567;DHT22;15006;48.584;9.186;2024-02-23T03:09:11;1.50;99.90
27567;DHT22;15006;48.584;9.186;2024-02-23T03:11:37;1.50;99.90
27567;DHT22;15006;48.584;9.186;2024-02-23T03:14:03;1.50;99.90
27567;DHT22;15006;48.584;9.186;2024-02-23T03:16:29;1.60;99.90
27567;DHT22;15006;48.584;9.186;2024-02-23T03:18:56;1.60;99.90
27567;DHT22;15006;48.584;9.186;2024-02-23T03:21:22;1.60;99.90
27567;DHT22;15006;48.584;9.186;2024-02-23T03:23:48;1.60;99.90
27567;DHT22;15006;48.584;9.186;2024-02-23T03:26:14;1.70;99.90
27567;DHT22;15006;48.584;9.186;2024-02-23T03:28:42;1.70;99.90
27567;DHT22;15006;48.584;9.186;2024-02-23T03:31:08;1.70;99.90
27567;DHT22;15006;48.584;9.186;2024-02-23T03:33:34;1.70;99.90
27567;DHT22;15006;48.584;9.186;2024-02-23T03:36:00;1.80;99.90
27567;DHT22;15006;48.584;9.186;2024-02-23T03:38:26;1.80;99.90
27567;DHT22;15006;48.584;9.186;2024-02-23T03:40:54;1.80;99.90
27567;DHT22;15006;48.584;9.186;2024-02-23T03:43:20;1.90;99.90
27567;DHT22;15006;48.584;9.186;2024-02-23T03:45:46;1.90;99.90
27567;DHT22;15006;48.584;9.186;2024-02-23T03:48:12;1.90;99.90
27567;DHT22;15006;48.584;9.186;2024-02-23T03:50:38;2.00;99.90
27567;DHT22;15006;48.584;9.186;2024-02-23T03:53:04;2.00;99.90
27567;DHT22;15006;48.584;9.186;2024-02-23T03:55:30;2.00;99.90
27567;DHT22;15006;48.584;9.186;2024-02-23T03:57:56;2.00;99.90
27567;DHT22;15006;48.584;9.186;2024-02-23T04:00:22;2.00;99.90
27567;DHT22;15006;48.584;9.186;2024-02-23T04:02:49;2.00;99.90
27567;DHT22;15006;48.584;9.186;2024-02-23T04:05:15;2.00;99.90
27567;DHT22;15006;48.584;9.186;2024-02-23T04:07:41;2.00;99.90
27567;DHT22;15006;48.584;9.186;2024-02-23T04:10:07;2.00;99.90
27567;DHT22;15006;48.584;9.186;2024-02-23T04:12:33;2.00;99.90
27567;DHT22;15006;48.584;9.186;2024-02-23T04:14:59;2.00;99.90
27567;DHT22;15006;48.584;9.186;2024-02-23T04:17:25;1.90;99.90
27567;DHT22;15006;48.584;9.186;2024-02-23T04:19:51;1.90;99.90
27567;DHT22;15006;48.584;9.186;2024-02-23T04:22:17;1.90;99.90
27567;DHT22;15006;48.584;9.186;2024-02-23T04:24:43;1.90;99.90
27567;DHT22;15006;48.584;9.186;2024-02-23T04:27:09;1.90;99.90
27567;DHT22;15006;48.584;9.186;2024-02-23T04:29:35;1.90;99.90
27567;DHT22;15006;48.584;9.186;2024-02-23T04:32:01;1.80;99.90
27567;DHT22;15006;48.584;9.186;2024-02-23T04:34:27;1.80;99.90
27567;DHT22;15006;48.584;9.186;2024-02-23T04:36:54;1.80;99.90
27567;DHT22;15006;48.584;9.186;2024-02-23T04:39:20;1.80;99.90
27567;DHT22;15006;48.584;9.186;2024-02-23T04:41:47;1.80;99.90
27567;DHT22;15006;48.584;9.186;2024-02-23T04:44:13;1.70;99.90
27567;DHT22;15006;48.584;9.186;2024-02-23T04:46:39;1.70;99.90
27567;DHT22;15006;48.584;9.186;2024-02-23T04:49:05;1.70;99.90
27567;DHT22;15006;48.584;9.186;2024-02-23T04:51:30;1.70;99.90
27567;DHT22;15006;48.584;9.186;2024-02-23T04:53:56;1.60;99.90
27567;DHT22;15006;48.584;9.186;2024-02-23T04:56:22;1.60;99.90
27567;DHT22;15006;48.584;9.186;2024-02-23T04:58:48;1.60;99.90
27567;DHT22;15006;48.584;9.186;2024-02-23T05:01:15;1.60;99.90
27567;DHT22;15006;48.584;9.186;2024-02-23T05:03:41;1.60;99.90
27567;DHT22;15006;48.584;9.186;2024-02-23T05:06:07;1.60;99.90
27567;DHT22;15006;48.584;9.186;2024-02-23T05:08:33;1.60;99.90
27567;DHT22;15006;48.584;9.186;2024-02-23T05:10:58;1.50;99.70
27567;DHT22;15006;48.584;9.186;2024-02-23T05:13:25;1.50;99.60
27567;DHT22;15006;48.584;9.186;2024-02-23T05:15:51;1.50;99.60
27567;DHT22;15006;48.584;9.186;2024-02-23T05:18:20;1.40;99.60
27567;DHT22;15006;48.584;9.186;2024-02-23T05:20:46;1.40;99.60
27567;DHT22;15006;48.584;9.186;2024-02-23T05:23:12;1.30;99.70
27567;DHT22;15006;48.584;9.186;2024-02-23T05:25:37;1.30;99.90
27567;DHT22;15006;48.584;9.186;2024-02-23T05:28:04;1.30;99.90
27567;DHT22;15006;48.584;9.186;2024-02-23T05:30:30;1.30;99.90
27567;DHT22;15006;48.584;9.186;2024-02-23T05:32:57;1.30;99.90
27567;DHT22;15006;48.584;9.186;2024-02-23T05:35:24;1.30;99.90
27567;DHT22;15006;48.584;9.186;2024-02-23T05:37:51;1.20;99.90
27567;DHT22;15006;48.584;9.186;2024-02-23T05:40:17;1.20;99.90
27567;DHT22;15006;48.584;9.186;2024-02-23T05:42:43;1.20;99.90
27567;DHT22;15006;48.584;9.186;2024-02-23T05:45:09;1.20;99.90
27567;DHT22;15006;48.584;9.186;2024-02-23T05:47:37;1.20;99.90
27567;DHT22;15006;48.584;9.186;2024-02-23T05:50:10;1.10;99.90
27567;DHT22;15006;48.584;9.186;2024-02-23T05:52:36;1.10;99.70
27567;DHT22;15006;48.584;9.186;2024-02-23T05:55:03;1.10;99.90
27567;DHT22;15006;48.584;9.186;2024-02-23T05:57:30;1.00;99.90
27567;DHT22;15006;48.584;9.186;2024-02-23T05:59:56;1.10;99.90
27567;DHT22;15006;48.584;9.186;2024-02-23T06:02:22;1.00;99.90
27567;DHT22;15006;48.584;9.186;2024-02-23T06:04:48;1.00;99.90
27567;DHT22;15006;48.584;9.186;2024-02-23T06:07:14;1.00;99.90
27567;DHT22;15006;48.584;9.186;2024-02-23T06:09:42;1.00;99.90
27567;DHT22;15006;48.584;9.186;2024-02-23T06:12:08;1.00;99.90
27567;DHT22;15006;48.584;9.186;2024-02-23T06:14:35;1.00;99.90
27567;DHT22;15006;48.584;9.186;2024-02-23T06:17:02;1.00;99.90
27567;DHT22;15006;48.584;9.186;2024-02-23T06:19:28;1.00;99.90
27567;DHT22;15006;48.584;9.186;2024-02-23T06:21:54;1.00;99.90
27567;DHT22;15006;48.584;9.186;2024-02-23T06:24:20;1.00;99.90
27567;DHT22;15006;48.584;9.186;2024-02-23T06:26:46;1.00;99.90
27567;DHT22;15006;48.584;9.186;2024-02-23T06:29:14;1.00;99.90
27567;DHT22;15006;48.584;9.186;2024-02-23T06:31:40;1.00;99.90
27567;DHT22;15006;48.584;9.186;2024-02-23T06:34:07;1.00;99.90
27567;DHT22;15006;48.584;9.186;2024-02-23T06:36:34;1.00;99.90
27567;DHT22;15006;48.584;9.186;2024-02-23T06:38:59;1.00;99.90
27567;DHT22;15006;48.584;9.186;2024-02-23T06:41:25;1.00;99.90
27567;DHT22;15006;48.584;9.186;2024-02-23T06:43:52;1.00;99.90
27567;DHT22;15006;48.584;9.186;2024-02-23T06:46:19;1.00;99.90
27567;DHT22;15006;48.584;9.186;2024-02-23T06:48:48;1.00;99.90
27567;DHT22;15006;48.584;9.186;2024-02-23T06:51:14;1.10;99.90
27567;DHT22;15006;48.584;9.186;2024-02-23T06:53:42;1.00;99.90
27567;DHT22;15006;48.584;9.186;2024-02-23T06:56:08;1.10;99.90
27567;DHT22;15006;48.584;9.186;2024-02-23T06:58:34;1.10;99.90
27567;DHT22;15006;48.584;9.186;2024-02-23T07:01:01;1.10;99.90
27567;DHT22;15006;48.584;9.186;2024-02-23T07:03:28;1.10;99.90
27567;DHT22;15006;48.584;9.186;2024-02-23T07:05:55;1.10;99.90
27567;DHT22;15006;48.584;9.186;2024-02-23T07:08:21;1.10;99.90
27567;DHT22;15006;48.584;9.186;2024-02-23T07:10:47;1.10;99.90
27567;DHT22;15006;48.584;9.186;2024-02-23T07:13:13;1.10;99.90
27567;DHT22;15006;48.584;9.186;2024-02-23T07:15:39;1.10;99.90
27567;DHT22;15006;48.584;9.186;2024-02-23T07:18:05;1.10;99.90
27567;DHT22;15006;48.584;9.186;2024-02-23T07:20:35;1.10;99.90
27567;DHT22;15006;48.584;9.186;2024-02-23T07:23:02;1.20;99.90
27567;DHT22;15006;48.584;9.186;2024-02-23T07:25:28;1.20;99.90
27567;DHT22;15006;48.584;9.186;2024-02-23T07:27:54;1.20;99.90
27567;DHT22;15006;48.584;9.186;2024-02-23T07:30:20;1.20;99.90
27567;DHT22;15006;48.584;9.186;2024-02-23T07:32:45;1.30;99.90
27567;DHT22;15006;48.584;9.186;2024-02-23T07:35:14;1.40;99.90
27567;DHT22;15006;48.584;9.186;2024-02-23T07:37:40;1.40;99.90
27567;DHT22;15006;48.584;9.186;2024-02-23T07:40:06;1.40;99.90
27567;DHT22;15006;48.584;9.186;2024-02-23T07:42:33;1.50;99.90
27567;DHT22;15006;48.584;9.186;2024-02-23T07:45:02;1.50;99.90
27567;DHT22;15006;48.584;9.186;2024-02-23T07:47:33;1.60;99.90
27567;DHT22;15006;48.584;9.186;2024-02-23T07:49:59;1.60;99.90
27567;DHT22;15006;48.584;9.186;2024-02-23T07:52:25;1.70;99.90
27567;DHT22;15006;48.584;9.186;2024-02-23T07:54:52;1.70;99.90
27567;DHT22;15006;48.584;9.186;2024-02-23T07:57:21;1.70;99.90
27567;DHT22;15006;48.584;9.186;2024-02-23T07:59:47;1.80;98.90
27567;DHT22;15006;48.584;9.186;2024-02-23T08:02:14;1.80;99.30
27567;DHT22;15006;48.584;9.186;2024-02-23T08:04:40;1.80;99.60
27567;DHT22;15006;48.584;9.186;2024-02-23T08:07:08;1.80;99.50
27567;DHT22;15006;48.584;9.186;2024-02-23T08:09:34;1.80;99.50
27567;DHT22;15006;48.584;9.186;2024-02-23T08:12:00;1.80;99.40
27567;DHT22;15006;48.584;9.186;2024-02-23T08:14:26;1.80;98.90
27567;DHT22;15006;48.584;9.186;2024-02-23T08:16:52;1.80;98.90
27567;DHT22;15006;48.584;9.186;2024-02-23T08:19:18;1.80;99.30
27567;DHT22;15006;48.584;9.186;2024-02-23T08:21:43;1.80;99.40
27567;DHT22;15006;48.584;9.186;2024-02-23T08:24:09;1.80;99.60
27567;DHT22;15006;48.584;9.186;2024-02-23T08:26:35;1.90;99.30
27567;DHT22;15006;48.584;9.186;2024-02-23T08:29:04;1.90;99.00
27567;DHT22;15006;48.584;9.186;2024-02-23T08:31:30;1.90;99.20
27567;DHT22;15006;48.584;9.186;2024-02-23T08:33:56;1.90;99.00
27567;DHT22;15006;48.584;9.186;2024-02-23T08:36:22;1.90;99.00
27567;DHT22;15006;48.584;9.186;2024-02-23T08:38:48;2.00;99.20
27567;DHT22;15006;48.584;9.186;2024-02-23T08:41:14;2.00;99.50
27567;DHT22;15006;48.584;9.186;2024-02-23T08:43:40;2.10;99.80
27567;DHT22;15006;48.584;9.186;2024-02-23T08:46:06;2.10;99.80
27567;DHT22;15006;48.584;9.186;2024-02-23T08:48:33;2.20;99.60
27567;DHT22;15006;48.584;9.186;2024-02-23T08:50:59;2.20;99.20
27567;DHT22;15006;48.584;9.186;2024-02-23T08:53:25;2.30;99.10
27567;DHT22;15006;48.584;9.186;2024-02-23T08:55:51;2.30;98.70
27567;DHT22;15006;48.584;9.186;2024-02-23T08:58:16;2.30;98.40
27567;DHT22;15006;48.584;9.186;2024-02-23T09:00:43;2.30;98.20
27567;DHT22;15006;48.584;9.186;2024-02-23T09:03:09;2.30;98.30
27567;DHT22;15006;48.584;9.186;2024-02-23T09:05:35;2.40;98.70
27567;DHT22;15006;48.584;9.186;2024-02-23T09:08:00;2.40;98.00
27567;DHT22;15006;48.584;9.186;2024-02-23T09:10:27;2.40;97.90
27567;DHT22;15006;48.584;9.186;2024-02-23T09:12:53;2.50;98.30
27567;DHT22;15006;48.584;9.186;2024-02-23T09:15:18;2.50;97.50
27567;DHT22;15006;48.584;9.186;2024-02-23T09:17:45;2.50;98.20
27567;DHT22;15006;48.584;9.186;2024-02-23T09:20:11;2.50;98.60
27567;DHT22;15006;48.584;9.186;2024-02-23T09:22:37;2.60;97.40
27567;DHT22;15006;48.584;9.186;2024-02-23T09:25:03;2.60;97.20
27567;DHT22;15006;48.584;9.186;2024-02-23T09:27:31;2.70;96.50
27567;DHT22;15006;48.584;9.186;2024-02-23T09:29:57;2.70;96.50
27567;DHT22;15006;48.584;9.186;2024-02-23T09:32:24;2.70;96.80
27567;DHT22;15006;48.584;9.186;2024-02-23T09:34:50;2.80;95.60
27567;DHT22;15006;48.584;9.186;2024-02-23T09:37:16;2.80;95.20
27567;DHT22;15006;48.584;9.186;2024-02-23T09:39:42;2.90;96.20
27567;DHT22;15006;48.584;9.186;2024-02-23T09:42:10;2.90;94.30
27567;DHT22;15006;48.584;9.186;2024-02-23T09:44:39;3.00;93.10
27567;DHT22;15006;48.584;9.186;2024-02-23T09:47:08;3.00;93.00
27567;DHT22;15006;48.584;9.186;2024-02-23T09:49:39;3.10;93.70
27567;DHT22;15006;48.584;9.186;2024-02-23T09:52:07;3.10;93.30
27567;DHT22;15006;48.584;9.186;2024-02-23T09:54:38;3.20;93.40
27567;DHT22;15006;48.584;9.186;2024-02-23T09:57:07;3.20;93.20
27567;DHT22;15006;48.584;9.186;2024-02-23T09:59:35;3.30;92.40
27567;DHT22;15006;48.584;9.186;2024-02-23T10:02:15;3.40;92.30
27567;DHT22;15006;48.584;9.186;2024-02-23T10:04:43;3.50;90.80
27567;DHT22;15006;48.584;9.186;2024-02-23T10:07:09;3.50;91.00
27567;DHT22;15006;48.584;9.186;2024-02-23T10:09:36;3.60;90.50
27567;DHT22;15006;48.584;9.186;2024-02-23T10:12:03;3.60;87.90
27567;DHT22;15006;48.584;9.186;2024-02-23T10:14:29;3.60;88.60
27567;DHT22;15006;48.584;9.186;2024-02-23T10:16:55;3.70;88.00
27567;DHT22;15006;48.584;9.186;2024-02-23T10:19:21;3.70;88.70
27567;DHT22;15006;48.584;9.186;2024-02-23T10:21:48;3.70;89.70
27567;DHT22;15006;48.584;9.186;2024-02-23T10:24:16;3.80;90.20
27567;DHT22;15006;48.584;9.186;2024-02-23T10:26:44;3.80;89.70
27567;DHT22;15006;48.584;9.186;2024-02-23T10:29:10;3.90;90.10
27567;DHT22;15006;48.584;9.186;2024-02-23T10:31:37;4.00;90.00
27567;DHT22;15006;48.584;9.186;2024-02-23T10:34:08;4.00;90.30
27567;DHT22;15006;48.584;9.186;2024-02-23T10:36:42;4.10;89.30
27567;DHT22;15006;48.584;9.186;2024-02-23T10:39:09;4.20;87.80
27567;DHT22;15006;48.584;9.186;2024-02-23T10:41:35;4.20;87.60
27567;DHT22;15006;48.584;9.186;2024-02-23T10:44:05;4.20;86.20
27567;DHT22;15006;48.584;9.186;2024-02-23T10:46:32;4.20;86.00
27567;DHT22;15006;48.584;9.186;2024-02-23T10:48:59;4.20;86.60
27567;DHT22;15006;48.584;9.186;2024-02-23T10:51:25;4.30;88.50
27567;DHT22;15006;48.584;9.186;2024-02-23T10:53:52;4.30;89.50
27567;DHT22;15006;48.584;9.186;2024-02-23T10:56:18;4.40;89.80
27567;DHT22;15006;48.584;9.186;2024-02-23T10:58:45;4.50;88.30
27567;DHT22;15006;48.584;9.186;2024-02-23T11:01:13;4.50;88.00
27567;DHT22;15006;48.584;9.186;2024-02-23T11:03:42;4.60;86.00
27567;DHT22;15006;48.584;9.186;2024-02-23T11:06:12;4.60;84.80
27567;DHT22;15006;48.584;9.186;2024-02-23T11:08:37;4.70;87.50
27567;DHT22;15006;48.584;9.186;2024-02-23T11:11:11;4.70;85.40
27567;DHT22;15006;48.584;9.186;2024-02-23T11:13:38;4.70;81.40
27567;DHT22;15006;48.584;9.186;2024-02-23T11:16:05;4.80;83.00
27567;DHT22;15006;48.584;9.186;2024-02-23T11:18:33;4.70;83.90
27567;DHT22;15006;48.584;9.186;2024-02-23T11:21:04;4.70;83.90
27567;DHT22;15006;48.584;9.186;2024-02-23T11:23:44;4.70;83.70
27567;DHT22;15006;48.584;9.186;2024-02-23T11:26:12;4.70;81.30
27567;DHT22;15006;48.584;9.186;2024-02-23T11:28:56;4.70;85.10
27567;DHT22;15006;48.584;9.186;2024-02-23T11:31:25;4.70;80.50
27567;DHT22;15006;48.584;9.186;2024-02-23T11:33:56;4.70;84.90
27567;DHT22;15006;48.584;9.186;2024-02-23T11:36:29;4.70;84.80
27567;DHT22;15006;48.584;9.186;2024-02-23T11:38:59;4.70;82.30
27567;DHT22;15006;48.584;9.186;2024-02-23T11:41:27;4.70;80.70
27567;DHT22;15006;48.584;9.186;2024-02-23T11:43:55;4.70;81.10
27567;DHT22;15006;48.584;9.186;2024-02-23T11:46:22;4.70;81.80
27567;DHT22;15006;48.584;9.186;2024-02-23T11:48:48;4.70;84.10
27567;DHT22;15006;48.584;9.186;2024-02-23T11:51:20;4.70;82.10
27567;DHT22;15006;48.584;9.186;2024-02-23T11:53:50;4.70;83.70
27567;DHT22;15006;48.584;9.186;2024-02-23T11:56:16;4.80;83.10
27567;DHT22;15006;48.584;9.186;2024-02-23T11:58:44;4.80;82.20
27567;DHT22;15006;48.584;9.186;2024-02-23T12:01:10;4.80;82.00
27567;DHT22;15006;48.584;9.186;2024-02-23T12:03:36;4.80;84.40
27567;DHT22;15006;48.584;9.186;2024-02-23T12:06:03;4.90;84.60
27567;DHT22;15006;48.584;9.186;2024-02-23T12:08:31;5.00;87.20
27567;DHT22;15006;48.584;9.186;2024-02-23T12:11:07;5.10;88.50
27567;DHT22;15006;48.584;9.186;2024-02-23T12:13:37;5.30;86.70
27567;DHT22;15006;48.584;9.186;2024-02-23T12:16:03;5.40;86.00
27567;DHT22;15006;48.584;9.186;2024-02-23T12:18:33;5.40;84.80
27567;DHT22;15006;48.584;9.186;2024-02-23T12:21:06;5.40;84.10
27567;DHT22;15006;48.584;9.186;2024-02-23T12:23:49;5.40;83.30
27567;DHT22;15006;48.584;9.186;2024-02-23T12:26:17;5.30;77.90
27567;DHT22;15006;48.584;9.186;2024-02-23T12:28:44;5.30;81.50
27567;DHT22;15006;48.584;9.186;2024-02-23T12:31:11;5.20;81.60
27567;DHT22;15006;48.584;9.186;2024-02-23T12:33:38;5.20;81.60
27567;DHT22;15006;48.584;9.186;2024-02-23T12:36:08;5.10;81.60
27567;DHT22;15006;48.584;9.186;2024-02-23T12:38:35;5.10;84.20
27567;DHT22;15006;48.584;9.186;2024-02-23T12:41:02;5.20;86.00
27567;DHT22;15006;48.584;9.186;2024-02-23T12:43:28;5.20;85.60
27567;DHT22;15006;48.584;9.186;2024-02-23T12:45:56;5.20;85.10
27567;DHT22;15006;48.584;9.186;2024-02-23T12:48:23;5.20;84.00
27567;DHT22;15006;48.584;9.186;2024-02-23T12:50:50;5.30;84.10
27567;DHT22;15006;48.584;9.186;2024-02-23T12:53:38;5.30;81.40
27567;DHT22;15006;48.584;9.186;2024-02-23T12:56:07;5.30;80.40
27567;DHT22;15006;48.584;9.186;2024-02-23T12:58:35;5.30;85.90
27567;DHT22;15006;48.584;9.186;2024-02-23T13:01:01;5.30;84.00
27567;DHT22;15006;48.584;9.186;2024-02-23T13:03:28;5.40;84.60
27567;DHT22;15006;48.584;9.186;2024-02-23T13:05:55;5.40;81.70
27567;DHT22;15006;48.584;9.186;2024-02-23T13:08:22;5.40;81.20
27567;DHT22;15006;48.584;9.186;2024-02-23T13:10:50;5.40;83.60
27567;DHT22;15006;48.584;9.186;2024-02-23T13:13:16;5.40;81.60
27567;DHT22;15006;48.584;9.186;2024-02-23T13:15:44;5.40;81.90
27567;DHT22;15006;48.584;9.186;2024-02-23T13:18:10;5.40;81.30
27567;DHT22;15006;48.584;9.186;2024-02-23T13:20:37;5.40;82.90
27567;DHT22;15006;48.584;9.186;2024-02-23T13:23:04;5.50;83.50
27567;DHT22;15006;48.584;9.186;2024-02-23T13:25:34;5.50;82.90
27567;DHT22;15006;48.584;9.186;2024-02-23T13:28:01;5.50;82.60
27567;DHT22;15006;48.584;9.186;2024-02-23T13:30:28;5.50;81.70
27567;DHT22;15006;48.584;9.186;2024-02-23T13:32:54;5.50;81.90
27567;DHT22;15006;48.584;9.186;2024-02-23T13:35:20;5.50;81.60
27567;DHT22;15006;48.584;9.186;2024-02-23T13:37:47;5.40;80.10
27567;DHT22;15006;48.584;9.186;2024-02-23T13:40:13;5.40;81.80
27567;DHT22;15006;48.584;9.186;2024-02-23T13:42:40;5.30;82.00
27567;DHT22;15006;48.584;9.186;2024-02-23T13:45:08;5.30;83.00
27567;DHT22;15006;48.584;9.186;2024-02-23T13:47:35;5.30;82.50
27567;DHT22;15006;48.584;9.186;2024-02-23T13:50:02;5.30;83.30
27567;DHT22;15006;48.584;9.186;2024-02-23T13:52:28;5.30;84.10
27567;DHT22;15006;48.584;9.186;2024-02-23T13:54:55;5.40;84.40
27567;DHT22;15006;48.584;9.186;2024-02-23T13:57:21;5.40;84.60
27567;DHT22;15006;48.584;9.186;2024-02-23T13:59:47;5.40;84.50
27567;DHT22;15006;48.584;9.186;2024-02-23T14:02:13;5.50;81.90
27567;DHT22;15006;48.584;9.186;2024-02-23T14:04:40;5.50;82.90
27567;DHT22;15006;48.584;9.186;2024-02-23T14:07:07;5.60;83.70
27567;DHT22;15006;48.584;9.186;2024-02-23T14:09:33;5.60;82.40
27567;DHT22;15006;48.584;9.186;2024-02-23T14:11:59;5.60;84.20
27567;DHT22;15006;48.584;9.186;2024-02-23T14:14:25;5.60;84.20
27567;DHT22;15006;48.584;9.186;2024-02-23T14:16:51;5.70;84.40
27567;DHT22;15006;48.584;9.186;2024-02-23T14:19:17;5.80;83.40
27567;DHT22;15006;48.584;9.186;2024-02-23T14:21:46;5.90;81.90
27567;DHT22;15006;48.584;9.186;2024-02-23T14:24:14;6.00;83.40
27567;DHT22;15006;48.584;9.186;2024-02-23T14:26:40;6.00;81.20
27567;DHT22;15006;48.584;9.186;2024-02-23T14:29:06;6.10;80.40
27567;DHT22;15006;48.584;9.186;2024-02-23T14:31:31;6.10;79.40
27567;DHT22;15006;48.584;9.186;2024-02-23T14:33:57;6.20;81.60
27567;DHT22;15006;48.584;9.186;2024-02-23T14:36:23;6.30;82.20
27567;DHT22;15006;48.584;9.186;2024-02-23T14:38:50;6.40;82.10
27567;DHT22;15006;48.584;9.186;2024-02-23T14:41:15;6.50;82.50
27567;DHT22;15006;48.584;9.186;2024-02-23T14:43:41;6.50;79.30
27567;DHT22;15006;48.584;9.186;2024-02-23T14:46:07;6.60;80.20
27567;DHT22;15006;48.584;9.186;2024-02-23T14:48:35;6.60;81.20
27567;DHT22;15006;48.584;9.186;2024-02-23T14:51:01;6.60;81.80
27567;DHT22;15006;48.584;9.186;2024-02-23T14:53:29;6.60;80.40
27567;DHT22;15006;48.584;9.186;2024-02-23T14:55:55;6.70;80.70
27567;DHT22;15006;48.584;9.186;2024-02-23T14:58:21;6.80;82.00
27567;DHT22;15006;48.584;9.186;2024-02-23T15:00:47;6.90;81.10
27567;DHT22;15006;48.584;9.186;2024-02-23T15:03:13;7.00;80.90
27567;DHT22;15006;48.584;9.186;2024-02-23T15:05:40;7.00;80.90
27567;DHT22;15006;48.584;9.186;2024-02-23T15:08:06;6.90;75.40
27567;DHT22;15006;48.584;9.186;2024-02-23T15:10:33;6.90;74.80
27567;DHT22;15006;48.584;9.186;2024-02-23T15:12:59;6.70;74.20
27567;DHT22;15006;48.584;9.186;2024-02-23T15:15:26;6.60;74.70
27567;DHT22;15006;48.584;9.186;2024-02-23T15:17:52;6.50;73.90
27567;DHT22;15006;48.584;9.186;2024-02-23T15:20:18;6.40;74.90
27567;DHT22;15006;48.584;9.186;2024-02-23T15:22:45;6.20;74.40
27567;DHT22;15006;48.584;9.186;2024-02-23T15:25:12;6.10;75.70
27567;DHT22;15006;48.584;9.186;2024-02-23T15:27:38;6.10;77.20
27567;DHT22;15006;48.584;9.186;2024-02-23T15:30:06;6.00;78.60
27567;DHT22;15006;48.584;9.186;2024-02-23T15:32:36;5.90;78.30
27567;DHT22;15006;48.584;9.186;2024-02-23T15:35:03;5.80;79.30
27567;DHT22;15006;48.584;9.186;2024-02-23T15:37:30;5.80;80.10
27567;DHT22;15006;48.584;9.186;2024-02-23T15:39:55;5.70;77.40
27567;DHT22;15006;48.584;9.186;2024-02-23T15:42:21;5.70;78.40